KHLB/HLB METAR and TAF weather

Enter ICAO airport designator
Station Type Date Time Source
KHLB METAR 2020/11/27 02:40 UTC NOAA

KHLB 270240Z AUTO 00000KT 10SM OVC025 08/08 A3011 RMK A01


Station Type Date Time Source
KHLB Decoded METAR 2020/11/27 02:40 UTC NOAA

Station name not available
Nov 26, 2020 - 09:40 PM EST / 2020.11.27 0240 UTC
Wind: Calm:0
Visibility: 10 mile(s):0
Sky conditions: overcast
Temperature: 46 F (8 C)
Dew Point: 46 F (8 C)
Relative Humidity: 100%
Pressure (altimeter): 30.11 in. Hg (1019 hPa)
ob: KHLB 270240Z AUTO 00000KT 10SM OVC025 08/08 A3011 RMK A01
cycle: 2

Station Type Date Time Source
KHLB TAF UTC NOAA

Error!

Example: see airport list